Time;durP1;ratioP1;P1;durP2;ratioP2;P2;SDS_P1;SDS_P2;PMS_P1;PMS_P2;Temp;Humidity;BMP_temperature;BMP_pressure;BME280_temperature;BME280_humidity;BME280_pressure;Samples;Min_cycle;Max_cycle;Signal;HPM_P1;HPM_P2
2020/12/14 00:01:38;;;;;;;53.53;26.70;;;2.70;90.50;;;;;;5034760;28;20033;-71
2020/12/14 00:04:05;;;;;;;56.78;28.10;;;2.70;90.40;;;;;;5033052;28;21154;-72
2020/12/14 00:06:31;;;;;;;54.70;26.75;;;2.70;90.30;;;;;;5033042;28;20128;-73
2020/12/14 00:08:57;;;;;;;54.28;27.85;;;2.70;90.30;;;;;;5032755;28;20462;-71
2020/12/14 00:11:23;;;;;;;59.08;28.70;;;2.70;90.40;;;;;;5030494;28;20044;-72
2020/12/14 00:13:48;;;;;;;56.13;28.70;;;2.60;90.60;;;;;;5033337;28;20037;-71
2020/12/14 00:16:14;;;;;;;54.30;27.90;;;2.60;90.50;;;;;;5034119;28;20529;-71
2020/12/14 00:18:40;;;;;;;60.38;28.00;;;2.60;90.70;;;;;;5030891;28;20486;-73
2020/12/14 00:21:06;;;;;;;56.92;28.48;;;2.60;90.80;;;;;;5032603;28;20040;-72
2020/12/14 00:23:31;;;;;;;55.03;27.10;;;2.60;90.80;;;;;;5029317;28;20552;-73
2020/12/14 00:25:57;;;;;;;55.85;26.45;;;2.60;90.60;;;;;;5032329;28;20029;-71
2020/12/14 00:28:23;;;;;;;56.03;27.67;;;2.60;90.90;;;;;;5034413;28;20038;-73
2020/12/14 00:30:48;;;;;;;56.72;29.17;;;2.60;91.10;;;;;;5032350;28;20418;-73
2020/12/14 00:33:14;;;;;;;53.70;28.27;;;2.60;90.90;;;;;;5030380;28;20024;-72
2020/12/14 00:35:40;;;;;;;61.08;28.65;;;2.60;90.50;;;;;;5032931;28;20013;-74
2020/12/14 00:38:05;;;;;;;52.65;27.83;;;2.60;90.30;;;;;;5031776;28;20041;-74
2020/12/14 00:40:35;;;;;;;59.00;28.15;;;2.60;90.30;;;;;;5032624;28;20483;-73
2020/12/14 00:43:00;;;;;;;56.47;27.83;;;2.60;90.60;;;;;;5030692;28;20040;-72
2020/12/14 00:45:29;;;;;;;50.42;27.17;;;2.60;90.80;;;;;;5030819;28;20022;-74
2020/12/14 00:47:55;;;;;;;59.78;28.23;;;2.60;90.90;;;;;;5030445;28;20045;-72
2020/12/14 00:50:20;;;;;;;56.83;29.55;;;2.60;90.90;;;;;;5032092;28;20036;-73
2020/12/14 00:52:49;;;;;;;58.83;29.00;;;2.60;90.70;;;;;;5031131;28;20083;-73
2020/12/14 00:55:16;;;;;;;65.43;30.35;;;2.70;90.50;;;;;;5031957;28;20025;-73
2020/12/14 00:57:43;;;;;;;63.03;29.73;;;2.60;90.90;;;;;;5029049;28;20052;-72
2020/12/14 01:00:09;;;;;;;60.35;29.40;;;2.60;90.70;;;;;;5030934;28;20025;-73
2020/12/14 01:02:35;;;;;;;61.20;28.60;;;2.60;90.90;;;;;;5030232;28;20029;-73
2020/12/14 01:05:00;;;;;;;64.88;30.38;;;2.60;90.50;;;;;;5030180;28;20499;-74
2020/12/14 01:07:26;;;;;;;63.22;29.70;;;2.60;90.60;;;;;;5033692;28;20025;-74
2020/12/14 01:09:52;;;;;;;61.33;28.90;;;2.60;90.80;;;;;;5031902;28;20386;-73
2020/12/14 01:12:17;;;;;;;61.95;27.65;;;2.60;90.80;;;;;;5027898;28;20036;-75
2020/12/14 01:14:43;;;;;;;58.58;28.00;;;2.60;90.80;;;;;;5030631;28;20029;-74
2020/12/14 01:17:10;;;;;;;61.50;29.13;;;2.60;91.10;;;;;;5030552;28;20026;-74
2020/12/14 01:19:35;;;;;;;63.08;29.70;;;2.60;91.00;;;;;;5032919;28;20026;-73
2020/12/14 01:22:01;;;;;;;62.58;29.40;;;2.60;90.90;;;;;;5030410;28;20040;-75
2020/12/14 01:24:27;;;;;;;59.55;29.10;;;2.60;90.80;;;;;;5031388;28;20399;-75
2020/12/14 01:26:53;;;;;;;62.25;29.42;;;2.70;90.80;;;;;;5029730;28;20545;-73
2020/12/14 01:29:18;;;;;;;57.75;28.33;;;2.70;90.60;;;;;;5030201;28;20029;-72
2020/12/14 01:31:44;;;;;;;72.07;30.15;;;2.70;90.60;;;;;;5031138;28;20049;-72
2020/12/14 01:34:10;;;;;;;63.00;29.88;;;2.70;90.80;;;;;;5031784;28;20055;-74
2020/12/14 01:36:35;;;;;;;63.42;29.52;;;2.60;90.70;;;;;;5029067;28;20084;-74
2020/12/14 01:39:01;;;;;;;62.47;28.20;;;2.70;90.90;;;;;;5030723;28;20025;-75
2020/12/14 01:41:27;;;;;;;59.97;28.42;;;2.60;90.80;;;;;;5030523;28;20041;-74
2020/12/14 01:43:52;;;;;;;58.90;28.23;;;2.70;90.70;;;;;;5031519;28;20356;-75
2020/12/14 01:46:28;;;;;;;59.03;27.58;;;2.60;90.40;;;;;;5030870;28;20041;-75
2020/12/14 01:48:54;;;;;;;60.25;27.73;;;2.60;90.50;;;;;;5029156;28;20071;-75
2020/12/14 01:51:20;;;;;;;58.55;27.23;;;2.60;90.60;;;;;;5028059;28;20037;-75
2020/12/14 01:53:47;;;;;;;56.53;27.30;;;2.60;90.60;;;;;;5030480;28;20017;-74
2020/12/14 01:56:13;;;;;;;57.47;27.30;;;2.60;90.90;;;;;;5029979;28;20044;-75
2020/12/14 01:58:39;;;;;;;57.40;26.58;;;2.60;91.00;;;;;;5031953;28;20478;-74
2020/12/14 02:01:04;;;;;;;58.38;27.90;;;2.60;90.70;;;;;;5026277;28;20045;-75
2020/12/14 02:03:30;;;;;;;59.58;28.08;;;2.70;90.60;;;;;;5029903;28;20037;-74
2020/12/14 02:05:56;;;;;;;63.17;28.65;;;2.70;90.60;;;;;;5035848;28;20419;-73
2020/12/14 02:08:21;;;;;;;61.47;28.27;;;2.70;90.60;;;;;;5037960;28;20075;-75
2020/12/14 02:10:47;;;;;;;57.45;27.02;;;2.70;90.50;;;;;;5037357;28;20053;-75
2020/12/14 02:13:13;;;;;;;61.13;28.55;;;2.70;90.60;;;;;;5037647;28;20021;-75
2020/12/14 02:15:39;;;;;;;62.35;29.35;;;2.70;90.70;;;;;;5035492;28;20486;-75
2020/12/14 02:18:04;;;;;;;61.95;27.92;;;2.60;90.70;;;;;;5036410;28;20032;-74
2020/12/14 02:20:30;;;;;;;57.90;26.83;;;2.70;90.90;;;;;;5034709;28;20044;-74
2020/12/14 02:22:56;;;;;;;63.42;28.60;;;2.60;90.90;;;;;;5034943;28;20033;-74
2020/12/14 02:25:21;;;;;;;50.97;25.95;;;2.60;90.80;;;;;;5037818;28;20037;-74
2020/12/14 02:27:47;;;;;;;60.28;27.90;;;2.60;91.10;;;;;;5035353;28;20100;-74
2020/12/14 02:30:15;;;;;;;55.90;26.42;;;2.60;90.80;;;;;;5032853;28;20021;-75
2020/12/14 02:32:40;;;;;;;60.05;27.95;;;2.70;90.70;;;;;;5036389;28;20571;-74
2020/12/14 02:35:06;;;;;;;55.92;26.70;;;2.60;90.30;;;;;;5035854;28;20113;-75
2020/12/14 02:37:32;;;;;;;58.00;27.20;;;2.70;90.40;;;;;;5038929;28;20029;-75
2020/12/14 02:39:58;;;;;;;54.90;26.70;;;2.60;90.70;;;;;;5035440;28;20126;-75
2020/12/14 02:42:25;;;;;;;51.75;26.30;;;2.70;90.50;;;;;;5034533;28;20059;-75
2020/12/14 02:44:51;;;;;;;61.65;28.23;;;2.70;90.40;;;;;;5036449;28;20040;-75
2020/12/14 02:47:17;;;;;;;65.28;27.45;;;2.60;90.40;;;;;;5036001;28;20025;-75
2020/12/14 02:49:43;;;;;;;60.08;28.80;;;2.60;90.50;;;;;;5037202;28;20029;-74
2020/12/14 02:52:10;;;;;;;60.72;27.40;;;2.60;90.40;;;;;;5037075;28;20025;-74
2020/12/14 02:54:37;;;;;;;57.05;26.67;;;2.60;90.70;;;;;;5034828;28;20085;-74
2020/12/14 02:57:03;;;;;;;56.65;27.10;;;2.60;90.90;;;;;;5036250;28;20021;-73
2020/12/14 02:59:29;;;;;;;56.22;25.77;;;2.60;90.70;;;;;;5036548;28;20041;-73
2020/12/14 03:01:55;;;;;;;59.10;27.55;;;2.60;90.80;;;;;;5035612;28;20120;-74
2020/12/14 03:04:21;;;;;;;53.95;26.60;;;2.60;91.00;;;;;;5038751;28;20021;-75
2020/12/14 03:06:49;;;;;;;56.38;27.08;;;2.60;91.10;;;;;;5035708;28;20087;-75
2020/12/14 03:09:17;;;;;;;54.30;25.33;;;2.60;90.90;;;;;;5035387;28;20025;-74
2020/12/14 03:11:42;;;;;;;58.90;27.77;;;2.60;91.10;;;;;;5035943;28;20059;-74
2020/12/14 03:14:09;;;;;;;56.83;25.75;;;2.60;91.00;;;;;;5036738;28;20475;-75
2020/12/14 03:16:42;;;;;;;59.95;26.58;;;2.60;90.90;;;;;;5033856;28;20104;-74
2020/12/14 03:19:08;;;;;;;57.47;26.67;;;2.60;90.80;;;;;;5033646;28;20028;-75
2020/12/14 03:21:34;;;;;;;56.78;27.40;;;2.60;90.90;;;;;;5032357;28;20041;-75
2020/12/14 03:24:00;;;;;;;58.60;25.77;;;2.60;90.40;;;;;;5033134;28;20487;-75
2020/12/14 03:26:25;;;;;;;57.00;27.23;;;2.60;90.70;;;;;;5032891;28;20013;-75
2020/12/14 03:28:51;;;;;;;50.42;24.63;;;2.60;90.70;;;;;;5034258;28;20494;-75
2020/12/14 03:31:17;;;;;;;54.63;24.65;;;2.60;90.70;;;;;;5032954;28;20450;-75
2020/12/14 03:33:43;;;;;;;52.25;24.90;;;2.60;90.80;;;;;;5032231;28;20021;-75
2020/12/14 03:36:08;;;;;;;53.67;24.63;;;2.60;91.00;;;;;;5031117;28;20041;-75
2020/12/14 03:38:34;;;;;;;53.78;25.85;;;2.60;90.90;;;;;;5029964;28;20052;-75
2020/12/14 03:41:07;;;;;;;50.50;23.98;;;2.60;90.80;;;;;;5034221;28;20037;-74
2020/12/14 03:43:34;;;;;;;52.85;23.30;;;2.60;91.00;;;;;;5031827;28;20021;-74
2020/12/14 03:46:00;;;;;;;54.00;23.85;;;2.60;91.10;;;;;;5031549;28;20034;-75
2020/12/14 03:48:25;;;;;;;50.78;24.58;;;2.60;91.00;;;;;;5031386;28;20030;-75
2020/12/14 03:50:51;;;;;;;51.88;24.95;;;2.60;90.80;;;;;;5032375;28;20036;-75
2020/12/14 03:53:17;;;;;;;53.42;24.70;;;2.60;90.80;;;;;;5032880;28;20018;-75
2020/12/14 03:55:43;;;;;;;53.08;24.83;;;2.70;90.70;;;;;;5031836;28;20109;-74
2020/12/14 03:58:09;;;;;;;49.58;23.42;;;2.60;90.70;;;;;;5029808;28;20186;-75
2020/12/14 04:00:35;;;;;;;46.83;22.25;;;2.60;90.90;;;;;;5028569;28;20553;-75
2020/12/14 04:03:05;;;;;;;51.83;23.52;;;2.60;90.60;;;;;;5029756;28;20505;-75
2020/12/14 04:05:31;;;;;;;50.08;23.17;;;2.70;90.60;;;;;;5028774;28;20069;-75
2020/12/14 04:07:57;;;;;;;47.78;22.55;;;2.70;90.60;;;;;;5030109;28;20072;-75
2020/12/14 04:10:22;;;;;;;44.67;21.55;;;2.60;90.70;;;;;;5033118;28;20033;-76
2020/12/14 04:12:49;;;;;;;46.90;22.73;;;2.60;91.00;;;;;;5029811;28;20506;-75
2020/12/14 04:15:14;;;;;;;47.60;22.60;;;2.60;91.10;;;;;;5028768;28;20032;-74
2020/12/14 04:17:40;;;;;;;39.35;20.15;;;2.60;91.00;;;;;;5033459;28;20026;-74
2020/12/14 04:20:06;;;;;;;40.67;20.38;;;2.60;90.90;;;;;;5031125;28;20089;-74
2020/12/14 04:22:32;;;;;;;40.53;20.55;;;2.60;90.70;;;;;;5033085;28;20529;-74
2020/12/14 04:24:57;;;;;;;43.95;21.73;;;2.50;90.70;;;;;;5031975;28;20032;-75
2020/12/14 04:27:23;;;;;;;37.15;19.23;;;2.50;91.00;;;;;;5030708;28;20026;-75
2020/12/14 04:29:49;;;;;;;47.15;20.83;;;2.50;91.20;;;;;;5029949;28;20113;-74
2020/12/14 04:32:15;;;;;;;36.90;19.00;;;2.50;91.10;;;;;;5031879;28;20053;-74
2020/12/14 04:34:40;;;;;;;36.60;18.13;;;2.50;90.80;;;;;;5033939;28;20033;-75
2020/12/14 04:37:06;;;;;;;33.95;17.10;;;2.50;91.00;;;;;;5031725;28;20498;-75
2020/12/14 04:39:32;;;;;;;37.65;19.23;;;2.50;91.10;;;;;;5032600;28;20041;-74
2020/12/14 04:41:57;;;;;;;34.97;17.67;;;2.50;91.30;;;;;;5028678;28;20053;-74
2020/12/14 04:44:24;;;;;;;34.83;17.48;;;2.50;91.10;;;;;;5033255;28;20021;-74
2020/12/14 04:46:50;;;;;;;32.38;16.50;;;2.60;91.00;;;;;;5033675;28;20036;-74
2020/12/14 04:49:16;;;;;;;29.77;16.70;;;2.60;90.90;;;;;;5031862;28;20510;-74
2020/12/14 04:51:43;;;;;;;32.85;17.08;;;2.60;90.50;;;;;;5038226;28;20423;-75
2020/12/14 04:54:10;;;;;;;34.80;17.70;;;2.60;90.70;;;;;;5044320;28;20032;-75
2020/12/14 04:56:41;;;;;;;32.22;16.88;;;2.60;90.70;;;;;;5029349;28;20122;-75
2020/12/14 04:59:10;;;;;;;33.60;17.73;;;2.60;90.80;;;;;;5032642;28;20080;-75
2020/12/14 05:01:36;;;;;;;30.00;15.95;;;2.60;90.90;;;;;;5032083;28;20052;-74
2020/12/14 05:04:02;;;;;;;32.15;15.75;;;2.60;91.00;;;;;;5029355;28;20120;-75
2020/12/14 05:06:42;;;;;;;30.58;15.68;;;2.60;90.80;;;;;;5030146;28;20048;-75
2020/12/14 05:09:19;;;;;;;29.77;16.13;;;2.60;90.90;;;;;;5032248;28;20028;-75
2020/12/14 05:11:44;;;;;;;27.40;15.45;;;2.60;91.00;;;;;;5030508;28;20036;-75
2020/12/14 05:14:12;;;;;;;25.77;14.05;;;2.60;90.90;;;;;;5030638;28;20033;-74
2020/12/14 05:16:37;;;;;;;28.85;15.35;;;2.60;90.70;;;;;;5037952;28;20450;-74
2020/12/14 05:19:20;;;;;;;26.35;15.05;;;2.60;90.80;;;;;;5028150;28;20112;-74
2020/12/14 05:21:50;;;;;;;29.83;14.38;;;2.60;90.80;;;;;;5028775;28;20033;-74
2020/12/14 05:24:25;;;;;;;24.23;13.38;;;2.60;90.80;;;;;;5031444;28;20430;-75
2020/12/14 05:26:51;;;;;;;28.42;15.30;;;2.60;90.80;;;;;;5030058;28;20017;-74
2020/12/14 05:29:28;;;;;;;27.10;14.38;;;2.60;90.80;;;;;;5029623;28;20436;-74
2020/12/14 05:32:12;;;;;;;27.20;14.77;;;2.60;90.90;;;;;;5026005;28;20414;-74
2020/12/14 05:34:42;;;;;;;25.60;13.40;;;2.50;90.80;;;;;;5031253;28;20107;-74
2020/12/14 05:37:12;;;;;;;24.67;14.15;;;2.60;90.80;;;;;;5030965;28;20049;-74
2020/12/14 05:39:39;;;;;;;30.08;15.25;;;2.60;90.80;;;;;;5029931;28;20482;-74
2020/12/14 05:42:08;;;;;;;30.52;15.90;;;2.60;90.70;;;;;;5029769;28;20049;-74
2020/12/14 05:44:35;;;;;;;27.80;13.70;;;2.50;90.60;;;;;;5029705;28;20025;-74
2020/12/14 05:47:01;;;;;;;27.73;14.13;;;2.50;90.80;;;;;;5031156;28;20065;-75
2020/12/14 05:49:26;;;;;;;27.50;13.80;;;2.50;91.00;;;;;;5031368;28;20018;-75
2020/12/14 05:52:00;;;;;;;26.92;13.50;;;2.50;91.10;;;;;;5029748;28;20033;-75
2020/12/14 05:54:36;;;;;;;22.17;13.15;;;2.50;91.10;;;;;;5028910;28;20033;-75
2020/12/14 05:57:03;;;;;;;25.55;13.18;;;2.50;91.20;;;;;;5029317;28;20038;-75
2020/12/14 05:59:33;;;;;;;26.77;13.98;;;2.50;91.10;;;;;;5030043;28;20026;-75
2020/12/14 06:02:03;;;;;;;27.10;14.55;;;2.50;91.10;;;;;;5030515;28;20086;-74
2020/12/14 06:04:33;;;;;;;27.63;14.85;;;2.50;91.10;;;;;;5031327;28;20069;-74
2020/12/14 06:07:07;;;;;;;30.27;13.63;;;2.50;90.90;;;;;;5027540;28;20116;-74
2020/12/14 06:09:39;;;;;;;29.17;14.95;;;2.50;90.80;;;;;;5030294;28;20040;-74
2020/12/14 06:12:05;;;;;;;29.92;15.35;;;2.50;91.10;;;;;;5028054;28;20078;-74
2020/12/14 06:14:38;;;;;;;29.35;15.95;;;2.50;90.90;;;;;;5027052;28;20608;-75
2020/12/14 06:17:11;;;;;;;29.05;16.75;;;2.50;90.90;;;;;;5028818;28;20069;-74
2020/12/14 06:19:38;;;;;;;24.20;14.70;;;2.40;91.00;;;;;;5031904;28;20033;-75
2020/12/14 06:22:09;;;;;;;27.88;15.55;;;2.50;91.00;;;;;;5024877;28;20030;-75
2020/12/14 06:24:35;;;;;;;28.75;16.38;;;2.50;90.80;;;;;;5027337;28;20032;-74
2020/12/14 06:27:07;;;;;;;31.10;16.50;;;2.50;90.90;;;;;;5026933;28;20117;-75
2020/12/14 06:29:34;;;;;;;30.40;16.95;;;2.50;91.00;;;;;;5026507;28;20075;-75
2020/12/14 06:32:01;;;;;;;22.27;13.95;;;2.40;91.10;;;;;;5026749;28;20486;-76
2020/12/14 06:34:33;;;;;;;30.13;15.27;;;2.40;90.80;;;;;;5030173;28;20059;-75
2020/12/14 06:37:03;;;;;;;26.95;14.07;;;2.40;90.60;;;;;;5024293;28;20064;-75
2020/12/14 06:39:37;;;;;;;26.63;14.38;;;2.40;90.70;;;;;;5026033;28;20029;-75
2020/12/14 06:42:09;;;;;;;28.88;14.60;;;2.40;90.90;;;;;;5026770;28;20036;-75
2020/12/14 06:44:44;;;;;;;26.77;14.45;;;2.40;91.00;;;;;;5027233;28;20021;-74
2020/12/14 06:47:17;;;;;;;32.45;17.52;;;2.40;91.00;;;;;;5028426;28;20026;-75
2020/12/14 06:49:45;;;;;;;28.75;15.68;;;2.50;91.10;;;;;;5027693;28;20064;-74
2020/12/14 06:52:10;;;;;;;29.50;15.88;;;2.50;91.10;;;;;;5029401;28;20025;-75
2020/12/14 06:54:47;;;;;;;23.67;14.27;;;2.50;91.10;;;;;;5030637;28;20032;-74
2020/12/14 06:57:19;;;;;;;25.50;13.07;;;2.50;90.70;;;;;;5029013;28;20483;-74
2020/12/14 06:59:52;;;;;;;23.83;13.85;;;2.50;90.20;;;;;;5030080;28;20148;-74
2020/12/14 07:02:18;;;;;;;30.63;15.90;;;2.50;90.30;;;;;;5030207;28;20045;-74
2020/12/14 07:04:45;;;;;;;34.17;16.05;;;2.50;90.60;;;;;;5034336;28;20383;-73
2020/12/14 07:07:10;;;;;;;27.13;14.52;;;2.50;90.70;;;;;;5028592;28;20075;-74
2020/12/14 07:09:38;;;;;;;25.95;14.63;;;2.50;90.60;;;;;;5028485;28;20029;-74
2020/12/14 07:12:09;;;;;;;23.13;12.85;;;2.60;90.60;;;;;;5031441;28;20018;-74
2020/12/14 07:14:46;;;;;;;24.67;11.95;;;2.50;90.70;;;;;;5029977;28;20081;-75
2020/12/14 07:17:25;;;;;;;21.73;12.13;;;2.60;90.50;;;;;;5029888;28;20026;-75
2020/12/14 07:19:52;;;;;;;18.85;10.68;;;2.80;89.70;;;;;;5031085;28;20029;-74
2020/12/14 07:23:00;;;;;;;17.65;10.85;;;2.80;89.10;;;;;;5032406;28;20033;-74
2020/12/14 07:25:25;;;;;;;21.92;12.60;;;2.80;88.50;;;;;;5012682;28;20492;-74
2020/12/14 07:27:51;;;;;;;20.95;12.05;;;2.70;89.80;;;;;;5009528;28;20038;-72
2020/12/14 07:30:19;;;;;;;26.75;12.60;;;2.70;89.80;;;;;;5008909;28;20087;-69
2020/12/14 07:32:46;;;;;;;19.48;10.80;;;2.70;90.10;;;;;;5011757;28;20088;-72
2020/12/14 07:35:13;;;;;;;18.98;11.02;;;2.60;90.20;;;;;;5001221;28;20049;-73
2020/12/14 07:37:42;;;;;;;18.33;11.82;;;2.60;90.00;;;;;;5013803;28;20022;-73
2020/12/14 07:40:08;;;;;;;19.10;11.80;;;2.70;90.00;;;;;;4992030;28;20034;-73
2020/12/14 07:42:37;;;;;;;21.90;11.43;;;2.70;90.10;;;;;;5011700;28;20026;-70
2020/12/14 07:45:24;;;;;;;20.58;11.02;;;2.60;90.50;;;;;;5005631;28;20042;-72
2020/12/14 07:47:52;;;;;;;22.77;12.85;;;2.60;90.30;;;;;;4987877;28;20530;-71
2020/12/14 07:50:26;;;;;;;25.08;12.93;;;2.60;90.20;;;;;;5005307;28;20585;-73
2020/12/14 07:52:53;;;;;;;19.73;11.80;;;2.70;90.20;;;;;;5005938;28;20462;-73
2020/12/14 07:55:19;;;;;;;22.35;12.13;;;2.70;90.20;;;;;;5008829;28;20026;-72
2020/12/14 07:57:47;;;;;;;22.60;13.05;;;2.70;90.00;;;;;;5003609;28;20030;-72
2020/12/14 08:00:20;;;;;;;18.63;11.82;;;2.70;90.00;;;;;;5016680;28;20043;-70
2020/12/14 08:02:46;;;;;;;18.23;11.13;;;2.80;89.70;;;;;;5020910;28;20025;-72
2020/12/14 08:05:13;;;;;;;20.40;12.05;;;2.90;89.30;;;;;;5035167;28;20030;-72
2020/12/14 08:07:49;;;;;;;17.83;11.20;;;2.90;89.30;;;;;;5039545;28;20060;-72
2020/12/14 08:10:18;;;;;;;19.75;12.02;;;2.90;89.20;;;;;;5026292;28;20025;-72
2020/12/14 08:12:44;;;;;;;21.20;12.30;;;2.90;88.90;;;;;;5025632;28;20052;-72
2020/12/14 08:15:18;;;;;;;21.33;11.85;;;3.00;88.30;;;;;;5029798;28;20029;-70
2020/12/14 08:17:47;;;;;;;19.58;11.63;;;2.90;89.00;;;;;;5023841;28;20064;-72
2020/12/14 08:20:33;;;;;;;21.27;12.05;;;2.80;89.50;;;;;;5014769;28;20039;-69
2020/12/14 08:23:00;;;;;;;19.70;11.95;;;2.80;90.00;;;;;;5021986;28;20052;-73
2020/12/14 08:25:29;;;;;;;22.23;12.38;;;2.80;89.70;;;;;;5040166;28;20028;-71
2020/12/14 08:28:04;;;;;;;17.85;10.55;;;2.80;89.20;;;;;;5030636;28;20097;-70
2020/12/14 08:30:33;;;;;;;21.25;11.43;;;2.80;89.00;;;;;;5028298;28;20034;-71
2020/12/14 08:33:12;;;;;;;18.73;11.88;;;2.80;89.50;;;;;;5026842;28;20041;-71
2020/12/14 08:35:39;;;;;;;18.73;11.27;;;2.70;90.10;;;;;;5023727;28;20088;-69
2020/12/14 08:38:13;;;;;;;19.05;11.93;;;2.80;90.20;;;;;;5024660;28;20018;-71
2020/12/14 08:40:49;;;;;;;19.33;11.73;;;2.80;90.10;;;;;;5019830;28;20037;-71
2020/12/14 08:43:17;;;;;;;21.35;13.57;;;2.80;89.80;;;;;;5023203;28;20053;-72
2020/12/14 08:46:03;;;;;;;20.38;11.98;;;2.80;89.50;;;;;;5027846;28;20109;-72
2020/12/14 08:48:30;;;;;;;22.55;13.05;;;2.80;89.30;;;;;;5023265;28;20592;-71
2020/12/14 08:51:07;;;;;;;17.50;11.82;;;2.70;90.00;;;;;;5023380;28;20072;-73
2020/12/14 08:53:33;;;;;;;18.60;11.93;;;2.80;89.80;;;;;;5010230;28;20507;-69
2020/12/14 08:56:13;;;;;;;19.80;12.52;;;2.80;89.30;;;;;;5021961;28;20085;-68
2020/12/14 08:58:51;;;;;;;19.03;11.60;;;2.90;89.20;;;;;;5028104;28;20163;-70
2020/12/14 09:01:22;;;;;;;22.02;13.30;;;2.90;89.30;;;;;;5027889;28;20303;-70
2020/12/14 09:03:55;;;;;;;20.08;11.60;;;2.90;89.30;;;;;;5023819;28;20045;-72
2020/12/14 09:06:24;;;;;;;19.20;12.10;;;2.90;89.80;;;;;;5020542;28;20367;-72
2020/12/14 09:09:00;;;;;;;20.48;11.65;;;3.00;89.10;;;;;;5023040;28;20029;-72
2020/12/14 09:11:29;;;;;;;19.58;11.80;;;2.90;88.10;;;;;;5020838;28;20361;-72
2020/12/14 09:14:04;;;;;;;20.95;12.73;;;3.00;88.70;;;;;;5025293;28;20498;-73
2020/12/14 09:16:30;;;;;;;20.40;10.68;;;3.00;88.60;;;;;;5026175;28;20040;-73
2020/12/14 09:18:57;;;;;;;15.60;9.63;;;3.00;87.70;;;;;;5025735;28;20497;-73
2020/12/14 09:21:23;;;;;;;14.50;9.82;;;3.10;88.00;;;;;;5027073;28;20033;-72
2020/12/14 09:24:12;;;;;;;17.63;9.82;;;3.10;87.70;;;;;;5027789;28;20045;-73
2020/12/14 09:26:38;;;;;;;18.48;11.10;;;3.20;88.30;;;;;;5027038;28;20029;-73
2020/12/14 09:29:04;;;;;;;16.40;10.73;;;3.20;88.00;;;;;;5025753;28;20029;-73
2020/12/14 09:31:30;;;;;;;19.00;11.52;;;3.20;87.10;;;;;;5019384;28;20148;-72
2020/12/14 09:33:55;;;;;;;17.63;10.90;;;3.20;87.50;;;;;;5039208;28;20032;-71
2020/12/14 09:36:21;;;;;;;18.00;10.25;;;3.20;87.60;;;;;;5030251;28;20052;-72
2020/12/14 09:38:47;;;;;;;19.52;11.40;;;3.30;87.00;;;;;;5020844;28;20033;-71
2020/12/14 09:41:13;;;;;;;15.18;9.90;;;3.30;86.90;;;;;;5021597;28;20666;-71
2020/12/14 09:43:38;;;;;;;18.05;10.48;;;3.40;86.10;;;;;;5039036;28;20033;-71
2020/12/14 09:46:04;;;;;;;19.27;11.43;;;3.30;86.40;;;;;;5020019;28;20017;-74
2020/12/14 09:48:30;;;;;;;14.05;9.38;;;3.40;86.50;;;;;;5018902;28;20366;-74
2020/12/14 09:50:56;;;;;;;19.02;11.38;;;3.30;86.80;;;;;;5000600;28;20392;-74
2020/12/14 09:53:21;;;;;;;19.08;11.80;;;3.30;87.10;;;;;;5022089;28;20442;-71
2020/12/14 09:55:47;;;;;;;17.25;10.95;;;3.40;86.60;;;;;;5023858;28;20025;-73
2020/12/14 09:58:12;;;;;;;17.20;10.70;;;3.40;86.50;;;;;;5023878;28;20014;-72
2020/12/14 10:00:40;;;;;;;19.50;11.70;;;3.50;86.30;;;;;;5020988;28;20065;-71
2020/12/14 10:03:06;;;;;;;16.65;11.23;;;3.40;86.70;;;;;;5027543;28;20060;-73
2020/12/14 10:05:32;;;;;;;17.40;11.15;;;3.40;86.60;;;;;;5023633;28;20065;-72
2020/12/14 10:07:57;;;;;;;17.10;11.93;;;3.40;86.50;;;;;;5022828;28;20127;-72
2020/12/14 10:10:23;;;;;;;16.98;11.23;;;3.30;86.90;;;;;;5029704;28;20036;-73
2020/12/14 10:12:49;;;;;;;19.00;11.15;;;3.30;87.30;;;;;;5020920;28;20034;-73
2020/12/14 10:15:14;;;;;;;18.85;11.10;;;3.40;86.40;;;;;;5019846;28;20048;-74
2020/12/14 10:17:40;;;;;;;17.63;11.10;;;3.40;87.30;;;;;;5022920;28;20114;-70
2020/12/14 10:20:07;;;;;;;17.92;10.60;;;3.40;86.90;;;;;;5024375;28;20153;-73
2020/12/14 10:22:36;;;;;;;15.38;10.48;;;3.40;85.90;;;;;;5024863;28;20033;-72
2020/12/14 10:25:02;;;;;;;15.93;10.32;;;3.40;86.20;;;;;;5027620;28;20032;-73
2020/12/14 10:27:28;;;;;;;16.95;11.15;;;3.40;86.10;;;;;;5030205;28;20029;-71
2020/12/14 10:29:53;;;;;;;16.23;10.10;;;3.40;86.60;;;;;;5030099;28;20486;-73
2020/12/14 10:32:19;;;;;;;19.27;11.73;;;3.40;86.80;;;;;;5024684;28;20058;-73
2020/12/14 10:34:45;;;;;;;16.35;10.88;;;3.50;86.60;;;;;;5020513;28;20029;-74
2020/12/14 10:37:10;;;;;;;20.10;11.70;;;3.40;86.80;;;;;;5032494;28;20572;-73
2020/12/14 10:39:36;;;;;;;16.30;11.45;;;3.40;86.10;;;;;;5023083;28;20030;-72
2020/12/14 10:42:02;;;;;;;19.58;12.48;;;3.40;86.20;;;;;;5030662;28;20183;-73
2020/12/14 10:44:30;;;;;;;20.15;11.48;;;3.30;85.60;;;;;;5025461;28;20100;-74
2020/12/14 10:47:02;;;;;;;16.23;10.88;;;3.40;86.30;;;;;;5022811;28;20045;-73
2020/12/14 10:49:27;;;;;;;19.55;12.65;;;3.40;86.50;;;;;;5029639;28;20037;-73
2020/12/14 10:51:53;;;;;;;20.45;11.18;;;3.40;86.30;;;;;;5018694;28;20137;-72
2020/12/14 10:54:22;;;;;;;18.08;11.40;;;3.40;86.00;;;;;;5023070;28;20042;-72
2020/12/14 10:56:47;;;;;;;18.05;12.60;;;3.40;85.30;;;;;;5023346;28;20030;-74
2020/12/14 10:59:13;;;;;;;19.63;11.52;;;3.40;85.80;;;;;;5023245;28;20028;-72
2020/12/14 11:01:39;;;;;;;20.67;13.05;;;3.40;86.40;;;;;;5021901;28;20041;-73
2020/12/14 11:04:04;;;;;;;20.55;13.23;;;3.40;86.50;;;;;;5028901;28;20127;-70
2020/12/14 11:06:33;;;;;;;24.85;14.52;;;3.50;86.30;;;;;;5028703;28;20044;-74
2020/12/14 11:08:59;;;;;;;22.50;14.38;;;3.50;86.10;;;;;;5026318;28;20506;-71
2020/12/14 11:11:31;;;;;;;22.33;14.02;;;3.50;86.40;;;;;;5028475;28;20025;-69
2020/12/14 11:13:59;;;;;;;25.92;15.10;;;3.40;86.00;;;;;;5025880;28;20064;-68
2020/12/14 11:16:26;;;;;;;20.13;13.43;;;3.50;86.00;;;;;;5029590;28;20036;-68
2020/12/14 11:18:51;;;;;;;26.00;14.55;;;3.50;86.00;;;;;;5029485;28;20033;-69
2020/12/14 11:21:17;;;;;;;23.27;15.32;;;3.50;86.10;;;;;;5030831;28;20032;-69
2020/12/14 11:23:43;;;;;;;26.98;16.40;;;3.50;86.00;;;;;;5027885;28;20087;-73
2020/12/14 11:26:08;;;;;;;23.65;15.55;;;3.50;85.60;;;;;;5026567;28;20025;-72
2020/12/14 11:28:34;;;;;;;21.98;14.73;;;3.60;86.20;;;;;;5029710;28;20091;-73
2020/12/14 11:31:00;;;;;;;24.15;15.40;;;3.60;85.40;;;;;;5028524;28;20097;-74
2020/12/14 11:33:25;;;;;;;24.38;15.35;;;3.60;85.80;;;;;;5028776;28;20029;-73
2020/12/14 11:35:51;;;;;;;23.52;15.70;;;3.60;86.00;;;;;;5030635;28;20120;-72
2020/12/14 11:38:17;;;;;;;22.50;14.02;;;3.60;85.70;;;;;;5023398;28;20056;-73
2020/12/14 11:40:42;;;;;;;22.13;14.27;;;3.60;85.50;;;;;;5025620;28;20507;-73
2020/12/14 11:43:08;;;;;;;24.23;15.43;;;3.60;85.20;;;;;;5027760;28;20083;-70
2020/12/14 11:45:34;;;;;;;21.48;15.07;;;3.60;85.30;;;;;;5023179;28;20133;-68
2020/12/14 11:47:59;;;;;;;22.52;14.48;;;3.60;85.90;;;;;;5022862;28;20191;-73
2020/12/14 11:50:25;;;;;;;23.35;14.93;;;3.60;86.10;;;;;;5028562;28;20025;-73
2020/12/14 11:52:51;;;;;;;25.90;15.00;;;3.50;85.80;;;;;;5025485;28;20545;-72
2020/12/14 11:55:16;;;;;;;25.83;16.83;;;3.50;85.80;;;;;;5025019;28;20038;-71
2020/12/14 11:57:42;;;;;;;22.08;13.93;;;3.50;86.30;;;;;;5028703;28;20394;-73
2020/12/14 12:00:10;;;;;;;23.50;14.10;;;3.50;85.70;;;;;;5026783;28;20064;-76
2020/12/14 12:02:36;;;;;;;24.63;13.95;;;3.40;85.80;;;;;;5022252;28;20037;-75
2020/12/14 12:05:29;;;;;;;25.63;15.63;;;3.40;85.80;;;;;;5028738;28;20040;-74
2020/12/14 12:08:00;;;;;;;22.02;15.75;;;3.40;86.10;;;;;;5037167;28;20108;-73
2020/12/14 12:10:26;;;;;;;25.23;16.27;;;3.40;86.10;;;;;;5023834;28;20033;-74
2020/12/14 12:12:51;;;;;;;29.17;16.35;;;3.40;86.20;;;;;;5027212;28;20033;-74
2020/12/14 12:15:17;;;;;;;24.52;15.85;;;3.40;86.40;;;;;;5026538;28;20426;-74
2020/12/14 12:17:43;;;;;;;25.67;15.27;;;3.40;87.00;;;;;;5016806;28;20030;-72
2020/12/14 12:20:09;;;;;;;23.83;15.10;;;3.40;86.50;;;;;;5043257;28;20041;-67
2020/12/14 12:22:35;;;;;;;24.50;15.02;;;3.40;85.90;;;;;;5027846;28;20033;-71
2020/12/14 12:25:02;;;;;;;23.55;15.98;;;3.40;86.60;;;;;;5024793;28;20032;-70
2020/12/14 12:27:28;;;;;;;26.08;15.85;;;3.40;86.30;;;;;;5023044;28;20030;-71
2020/12/14 12:29:54;;;;;;;30.27;17.67;;;3.40;86.90;;;;;;5027014;28;20052;-73
2020/12/14 12:32:20;;;;;;;28.73;16.67;;;3.40;86.50;;;;;;5026132;28;20049;-74
2020/12/14 12:34:46;;;;;;;27.10;15.85;;;3.40;86.40;;;;;;5027358;28;20040;-70
2020/12/14 12:37:12;;;;;;;24.83;15.88;;;3.40;86.70;;;;;;5030807;28;20029;-70
2020/12/14 12:39:38;;;;;;;29.27;17.92;;;3.40;86.60;;;;;;5021637;28;20033;-74
2020/12/14 12:42:04;;;;;;;25.48;16.23;;;3.40;86.70;;;;;;5026115;28;20108;-72